sensor_id;sensor_type;location;lat;lon;timestamp;temperature;humidity
27314;DHT22;14800;48.174;9.798;2023-11-19T00:01:01;8.80;90.70
27314;DHT22;14800;48.174;9.798;2023-11-19T00:03:27;8.90;90.70
27314;DHT22;14800;48.174;9.798;2023-11-19T00:05:53;8.90;90.80
27314;DHT22;14800;48.174;9.798;2023-11-19T00:08:19;8.90;90.80
27314;DHT22;14800;48.174;9.798;2023-11-19T00:10:44;8.90;91.20
27314;DHT22;14800;48.174;9.798;2023-11-19T00:13:11;8.90;90.80
27314;DHT22;14800;48.174;9.798;2023-11-19T00:15:37;8.90;90.90
27314;DHT22;14800;48.174;9.798;2023-11-19T00:18:03;8.90;90.90
27314;DHT22;14800;48.174;9.798;2023-11-19T00:20:30;8.90;91.00
27314;DHT22;14800;48.174;9.798;2023-11-19T00:22:56;8.90;91.00
27314;DHT22;14800;48.174;9.798;2023-11-19T00:25:21;8.90;91.00
27314;DHT22;14800;48.174;9.798;2023-11-19T00:27:47;8.90;91.00
27314;DHT22;14800;48.174;9.798;2023-11-19T00:30:13;8.90;91.00
27314;DHT22;14800;48.174;9.798;2023-11-19T00:32:39;9.00;91.10
27314;DHT22;14800;48.174;9.798;2023-11-19T00:35:06;9.00;91.10
27314;DHT22;14800;48.174;9.798;2023-11-19T00:37:32;9.00;91.10
27314;DHT22;14800;48.174;9.798;2023-11-19T00:39:58;9.00;91.20
27314;DHT22;14800;48.174;9.798;2023-11-19T00:42:24;9.10;91.10
27314;DHT22;14800;48.174;9.798;2023-11-19T00:44:50;9.10;91.10
27314;DHT22;14800;48.174;9.798;2023-11-19T00:47:16;9.10;91.10
27314;DHT22;14800;48.174;9.798;2023-11-19T00:49:41;9.10;91.10
27314;DHT22;14800;48.174;9.798;2023-11-19T00:52:08;9.10;91.20
27314;DHT22;14800;48.174;9.798;2023-11-19T00:54:33;9.10;91.10
27314;DHT22;14800;48.174;9.798;2023-11-19T00:56:59;9.20;91.20
27314;DHT22;14800;48.174;9.798;2023-11-19T00:59:24;9.20;91.20
27314;DHT22;14800;48.174;9.798;2023-11-19T01:01:50;9.20;91.20
27314;DHT22;14800;48.174;9.798;2023-11-19T01:04:18;9.20;91.20
27314;DHT22;14800;48.174;9.798;2023-11-19T01:06:44;9.20;91.30
27314;DHT22;14800;48.174;9.798;2023-11-19T01:09:10;9.20;91.40
27314;DHT22;14800;48.174;9.798;2023-11-19T01:11:35;9.20;91.40
27314;DHT22;14800;48.174;9.798;2023-11-19T01:14:02;9.20;91.40
27314;DHT22;14800;48.174;9.798;2023-11-19T01:16:28;9.20;91.40
27314;DHT22;14800;48.174;9.798;2023-11-19T01:18:53;9.20;91.50
27314;DHT22;14800;48.174;9.798;2023-11-19T01:21:19;9.20;91.50
27314;DHT22;14800;48.174;9.798;2023-11-19T01:23:45;9.20;91.50
27314;DHT22;14800;48.174;9.798;2023-11-19T01:26:14;9.20;91.50
27314;DHT22;14800;48.174;9.798;2023-11-19T01:28:40;9.20;91.50
27314;DHT22;14800;48.174;9.798;2023-11-19T01:31:08;9.20;91.50
27314;DHT22;14800;48.174;9.798;2023-11-19T01:33:35;9.20;91.50
27314;DHT22;14800;48.174;9.798;2023-11-19T01:36:01;9.30;91.60
27314;DHT22;14800;48.174;9.798;2023-11-19T01:38:27;9.30;91.60
27314;DHT22;14800;48.174;9.798;2023-11-19T01:40:56;9.30;91.70
27314;DHT22;14800;48.174;9.798;2023-11-19T01:43:35;9.30;91.80
27314;DHT22;14800;48.174;9.798;2023-11-19T01:46:02;9.30;91.90
27314;DHT22;14800;48.174;9.798;2023-11-19T01:48:33;9.30;91.80
27314;DHT22;14800;48.174;9.798;2023-11-19T01:51:00;9.40;91.90
27314;DHT22;14800;48.174;9.798;2023-11-19T01:53:27;9.40;91.90
27314;DHT22;14800;48.174;9.798;2023-11-19T01:55:54;9.40;91.90
27314;DHT22;14800;48.174;9.798;2023-11-19T01:58:21;9.40;91.90
27314;DHT22;14800;48.174;9.798;2023-11-19T02:00:48;9.50;92.00
27314;DHT22;14800;48.174;9.798;2023-11-19T02:03:14;9.50;92.00
27314;DHT22;14800;48.174;9.798;2023-11-19T02:05:40;9.50;92.00
27314;DHT22;14800;48.174;9.798;2023-11-19T02:08:06;9.60;92.00
27314;DHT22;14800;48.174;9.798;2023-11-19T02:10:32;9.60;92.10
27314;DHT22;14800;48.174;9.798;2023-11-19T02:12:58;9.70;92.10
27314;DHT22;14800;48.174;9.798;2023-11-19T02:15:24;9.70;92.10
27314;DHT22;14800;48.174;9.798;2023-11-19T02:17:50;9.70;92.10
27314;DHT22;14800;48.174;9.798;2023-11-19T02:20:16;9.70;92.10
27314;DHT22;14800;48.174;9.798;2023-11-19T02:22:43;9.70;92.10
27314;DHT22;14800;48.174;9.798;2023-11-19T02:25:32;9.80;92.20
27314;DHT22;14800;48.174;9.798;2023-11-19T02:28:01;9.90;92.50
27314;DHT22;14800;48.174;9.798;2023-11-19T02:30:27;9.90;92.30
27314;DHT22;14800;48.174;9.798;2023-11-19T02:32:57;9.90;92.20
27314;DHT22;14800;48.174;9.798;2023-11-19T02:35:25;9.90;92.30
27314;DHT22;14800;48.174;9.798;2023-11-19T02:37:51;10.00;92.30
27314;DHT22;14800;48.174;9.798;2023-11-19T02:40:16;9.90;92.20
27314;DHT22;14800;48.174;9.798;2023-11-19T02:42:42;10.00;92.20
27314;DHT22;14800;48.174;9.798;2023-11-19T02:45:08;10.00;92.20
27314;DHT22;14800;48.174;9.798;2023-11-19T02:47:42;10.00;92.20
27314;DHT22;14800;48.174;9.798;2023-11-19T02:50:11;10.10;92.20
27314;DHT22;14800;48.174;9.798;2023-11-19T02:52:46;10.10;92.30
27314;DHT22;14800;48.174;9.798;2023-11-19T02:55:12;10.20;92.30
27314;DHT22;14800;48.174;9.798;2023-11-19T02:57:38;10.10;92.20
27314;DHT22;14800;48.174;9.798;2023-11-19T03:00:18;10.10;92.20
27314;DHT22;14800;48.174;9.798;2023-11-19T03:02:44;10.20;92.30
27314;DHT22;14800;48.174;9.798;2023-11-19T03:05:15;10.20;92.30
27314;DHT22;14800;48.174;9.798;2023-11-19T03:07:42;10.20;92.30
27314;DHT22;14800;48.174;9.798;2023-11-19T03:10:09;10.20;92.30
27314;DHT22;14800;48.174;9.798;2023-11-19T03:12:39;10.30;92.30
27314;DHT22;14800;48.174;9.798;2023-11-19T03:15:05;10.30;92.40
27314;DHT22;14800;48.174;9.798;2023-11-19T03:17:31;10.30;92.40
27314;DHT22;14800;48.174;9.798;2023-11-19T03:19:56;10.30;92.30
27314;DHT22;14800;48.174;9.798;2023-11-19T03:22:22;10.30;92.40
27314;DHT22;14800;48.174;9.798;2023-11-19T03:24:50;10.40;92.40
27314;DHT22;14800;48.174;9.798;2023-11-19T03:27:16;10.40;92.40
27314;DHT22;14800;48.174;9.798;2023-11-19T03:29:42;10.40;92.40
27314;DHT22;14800;48.174;9.798;2023-11-19T03:32:07;10.40;92.30
27314;DHT22;14800;48.174;9.798;2023-11-19T03:34:33;10.50;92.40
27314;DHT22;14800;48.174;9.798;2023-11-19T03:36:58;10.50;92.40
27314;DHT22;14800;48.174;9.798;2023-11-19T03:39:24;10.50;92.30
27314;DHT22;14800;48.174;9.798;2023-11-19T03:41:50;10.50;92.30
27314;DHT22;14800;48.174;9.798;2023-11-19T03:44:16;10.50;92.30
27314;DHT22;14800;48.174;9.798;2023-11-19T03:46:42;10.50;92.30
27314;DHT22;14800;48.174;9.798;2023-11-19T03:49:08;10.50;92.30
27314;DHT22;14800;48.174;9.798;2023-11-19T03:51:33;10.60;92.30
27314;DHT22;14800;48.174;9.798;2023-11-19T03:54:00;10.60;92.30
27314;DHT22;14800;48.174;9.798;2023-11-19T03:56:26;10.60;92.30
27314;DHT22;14800;48.174;9.798;2023-11-19T03:58:52;10.60;92.30
27314;DHT22;14800;48.174;9.798;2023-11-19T04:01:18;10.70;92.30
27314;DHT22;14800;48.174;9.798;2023-11-19T04:03:43;10.70;92.30
27314;DHT22;14800;48.174;9.798;2023-11-19T04:06:09;10.70;92.30
27314;DHT22;14800;48.174;9.798;2023-11-19T04:08:35;10.70;92.30
27314;DHT22;14800;48.174;9.798;2023-11-19T04:11:03;10.70;92.30
27314;DHT22;14800;48.174;9.798;2023-11-19T04:13:28;10.70;92.20
27314;DHT22;14800;48.174;9.798;2023-11-19T04:15:54;10.70;92.20
27314;DHT22;14800;48.174;9.798;2023-11-19T04:18:19;10.70;92.20
27314;DHT22;14800;48.174;9.798;2023-11-19T04:20:45;10.70;92.20
27314;DHT22;14800;48.174;9.798;2023-11-19T04:23:10;10.70;92.20
27314;DHT22;14800;48.174;9.798;2023-11-19T04:25:36;10.70;92.20
27314;DHT22;14800;48.174;9.798;2023-11-19T04:28:02;10.70;92.10
27314;DHT22;14800;48.174;9.798;2023-11-19T04:30:28;10.70;92.10
27314;DHT22;14800;48.174;9.798;2023-11-19T04:32:54;10.70;92.10
27314;DHT22;14800;48.174;9.798;2023-11-19T04:35:19;10.70;92.10
27314;DHT22;14800;48.174;9.798;2023-11-19T04:37:45;10.60;92.00
27314;DHT22;14800;48.174;9.798;2023-11-19T04:40:13;10.70;92.10
27314;DHT22;14800;48.174;9.798;2023-11-19T04:42:38;10.60;92.10
27314;DHT22;14800;48.174;9.798;2023-11-19T04:45:07;10.60;92.00
27314;DHT22;14800;48.174;9.798;2023-11-19T04:47:38;10.60;92.10
27314;DHT22;14800;48.174;9.798;2023-11-19T04:50:04;10.60;92.10
27314;DHT22;14800;48.174;9.798;2023-11-19T04:52:30;10.60;92.10
27314;DHT22;14800;48.174;9.798;2023-11-19T04:54:56;10.60;92.10
27314;DHT22;14800;48.174;9.798;2023-11-19T04:57:21;10.60;92.10
27314;DHT22;14800;48.174;9.798;2023-11-19T04:59:47;10.60;92.10
27314;DHT22;14800;48.174;9.798;2023-11-19T05:02:12;10.60;92.10
27314;DHT22;14800;48.174;9.798;2023-11-19T05:04:42;10.60;92.10
27314;DHT22;14800;48.174;9.798;2023-11-19T05:07:09;10.60;92.50
27314;DHT22;14800;48.174;9.798;2023-11-19T05:09:35;10.60;92.10
27314;DHT22;14800;48.174;9.798;2023-11-19T05:12:00;10.60;92.10
27314;DHT22;14800;48.174;9.798;2023-11-19T05:14:28;10.60;92.10
27314;DHT22;14800;48.174;9.798;2023-11-19T05:16:53;10.60;92.10
27314;DHT22;14800;48.174;9.798;2023-11-19T05:19:19;10.60;92.20
27314;DHT22;14800;48.174;9.798;2023-11-19T05:21:44;10.60;92.20
27314;DHT22;14800;48.174;9.798;2023-11-19T05:24:10;10.60;92.20
27314;DHT22;14800;48.174;9.798;2023-11-19T05:26:37;10.70;92.30
27314;DHT22;14800;48.174;9.798;2023-11-19T05:29:03;10.70;92.20
27314;DHT22;14800;48.174;9.798;2023-11-19T05:31:30;10.70;92.30
27314;DHT22;14800;48.174;9.798;2023-11-19T05:33:55;10.70;92.30
27314;DHT22;14800;48.174;9.798;2023-11-19T05:36:21;10.70;92.30
27314;DHT22;14800;48.174;9.798;2023-11-19T05:38:47;10.70;92.30
27314;DHT22;14800;48.174;9.798;2023-11-19T05:41:12;10.70;92.30
27314;DHT22;14800;48.174;9.798;2023-11-19T05:43:38;10.80;92.40
27314;DHT22;14800;48.174;9.798;2023-11-19T05:46:06;10.80;92.40
27314;DHT22;14800;48.174;9.798;2023-11-19T05:48:32;10.80;92.40
27314;DHT22;14800;48.174;9.798;2023-11-19T05:50:58;10.80;92.40
27314;DHT22;14800;48.174;9.798;2023-11-19T05:53:24;10.80;92.40
27314;DHT22;14800;48.174;9.798;2023-11-19T05:55:50;10.80;92.30
27314;DHT22;14800;48.174;9.798;2023-11-19T05:58:27;10.90;92.30
27314;DHT22;14800;48.174;9.798;2023-11-19T06:00:57;10.90;92.40
27314;DHT22;14800;48.174;9.798;2023-11-19T06:03:23;11.00;92.40
27314;DHT22;14800;48.174;9.798;2023-11-19T06:05:49;11.00;92.40
27314;DHT22;14800;48.174;9.798;2023-11-19T06:08:15;11.00;92.40
27314;DHT22;14800;48.174;9.798;2023-11-19T06:10:42;11.00;92.40
27314;DHT22;14800;48.174;9.798;2023-11-19T06:13:07;11.00;92.40
27314;DHT22;14800;48.174;9.798;2023-11-19T06:15:35;11.00;92.50
27314;DHT22;14800;48.174;9.798;2023-11-19T06:18:01;11.10;92.50
27314;DHT22;14800;48.174;9.798;2023-11-19T06:20:29;11.10;92.50
27314;DHT22;14800;48.174;9.798;2023-11-19T06:22:55;11.10;92.50
27314;DHT22;14800;48.174;9.798;2023-11-19T06:25:22;11.10;92.50
27314;DHT22;14800;48.174;9.798;2023-11-19T06:27:49;11.10;92.50
27314;DHT22;14800;48.174;9.798;2023-11-19T06:30:15;11.20;92.60
27314;DHT22;14800;48.174;9.798;2023-11-19T06:32:40;11.10;92.60
27314;DHT22;14800;48.174;9.798;2023-11-19T06:35:06;11.20;92.60
27314;DHT22;14800;48.174;9.798;2023-11-19T06:37:32;11.20;92.60
27314;DHT22;14800;48.174;9.798;2023-11-19T06:39:58;11.20;92.60
27314;DHT22;14800;48.174;9.798;2023-11-19T06:42:24;11.20;92.60
27314;DHT22;14800;48.174;9.798;2023-11-19T06:44:50;11.30;92.60
27314;DHT22;14800;48.174;9.798;2023-11-19T06:47:17;11.30;92.60
27314;DHT22;14800;48.174;9.798;2023-11-19T06:49:44;11.30;93.00
27314;DHT22;14800;48.174;9.798;2023-11-19T06:52:10;11.40;92.70
27314;DHT22;14800;48.174;9.798;2023-11-19T06:54:36;11.40;92.60
27314;DHT22;14800;48.174;9.798;2023-11-19T06:57:01;11.40;92.60
27314;DHT22;14800;48.174;9.798;2023-11-19T06:59:28;11.40;92.60
27314;DHT22;14800;48.174;9.798;2023-11-19T07:01:55;11.40;92.60
27314;DHT22;14800;48.174;9.798;2023-11-19T07:04:21;11.50;92.50
27314;DHT22;14800;48.174;9.798;2023-11-19T07:06:48;11.50;92.50
27314;DHT22;14800;48.174;9.798;2023-11-19T07:09:18;11.50;92.40
27314;DHT22;14800;48.174;9.798;2023-11-19T07:11:44;11.50;92.40
27314;DHT22;14800;48.174;9.798;2023-11-19T07:14:11;11.50;92.40
27314;DHT22;14800;48.174;9.798;2023-11-19T07:16:37;11.50;92.40
27314;DHT22;14800;48.174;9.798;2023-11-19T07:19:04;11.50;92.40
27314;DHT22;14800;48.174;9.798;2023-11-19T07:21:31;11.50;92.40
27314;DHT22;14800;48.174;9.798;2023-11-19T07:23:58;11.50;92.40
27314;DHT22;14800;48.174;9.798;2023-11-19T07:26:23;11.50;92.50
27314;DHT22;14800;48.174;9.798;2023-11-19T07:28:49;11.50;92.50
27314;DHT22;14800;48.174;9.798;2023-11-19T07:31:16;11.50;92.50
27314;DHT22;14800;48.174;9.798;2023-11-19T07:33:42;11.50;92.50
27314;DHT22;14800;48.174;9.798;2023-11-19T07:36:09;11.50;92.50
27314;DHT22;14800;48.174;9.798;2023-11-19T07:38:34;11.60;92.50
27314;DHT22;14800;48.174;9.798;2023-11-19T07:41:00;11.60;92.60
27314;DHT22;14800;48.174;9.798;2023-11-19T07:43:26;11.60;92.60
27314;DHT22;14800;48.174;9.798;2023-11-19T07:45:52;11.70;92.60
27314;DHT22;14800;48.174;9.798;2023-11-19T07:48:18;11.70;92.60
27314;DHT22;14800;48.174;9.798;2023-11-19T07:50:48;11.60;92.60
27314;DHT22;14800;48.174;9.798;2023-11-19T07:53:16;11.70;92.60
27314;DHT22;14800;48.174;9.798;2023-11-19T07:55:41;11.70;92.50
27314;DHT22;14800;48.174;9.798;2023-11-19T07:58:07;11.70;92.50
27314;DHT22;14800;48.174;9.798;2023-11-19T08:00:33;11.70;92.50
27314;DHT22;14800;48.174;9.798;2023-11-19T08:02:58;11.70;92.50
27314;DHT22;14800;48.174;9.798;2023-11-19T08:05:24;11.70;92.50
27314;DHT22;14800;48.174;9.798;2023-11-19T08:07:52;11.70;92.50
27314;DHT22;14800;48.174;9.798;2023-11-19T08:10:19;11.80;92.50
27314;DHT22;14800;48.174;9.798;2023-11-19T08:12:44;11.70;92.50
27314;DHT22;14800;48.174;9.798;2023-11-19T08:15:10;11.70;92.50
27314;DHT22;14800;48.174;9.798;2023-11-19T08:17:36;11.70;92.60
27314;DHT22;14800;48.174;9.798;2023-11-19T08:20:03;11.70;92.60
27314;DHT22;14800;48.174;9.798;2023-11-19T08:22:30;11.70;92.60
27314;DHT22;14800;48.174;9.798;2023-11-19T08:24:56;11.70;92.70
27314;DHT22;14800;48.174;9.798;2023-11-19T08:27:21;11.70;92.70
27314;DHT22;14800;48.174;9.798;2023-11-19T08:29:53;11.70;92.70
27314;DHT22;14800;48.174;9.798;2023-11-19T08:32:21;11.80;92.80
27314;DHT22;14800;48.174;9.798;2023-11-19T08:34:46;11.80;92.90
27314;DHT22;14800;48.174;9.798;2023-11-19T08:37:12;11.80;92.90
27314;DHT22;14800;48.174;9.798;2023-11-19T08:39:38;11.80;93.00
27314;DHT22;14800;48.174;9.798;2023-11-19T08:42:04;11.90;93.10
27314;DHT22;14800;48.174;9.798;2023-11-19T08:44:29;11.90;93.20
27314;DHT22;14800;48.174;9.798;2023-11-19T08:46:55;11.90;93.20
27314;DHT22;14800;48.174;9.798;2023-11-19T08:49:21;12.00;93.20
27314;DHT22;14800;48.174;9.798;2023-11-19T08:51:46;12.00;93.20
27314;DHT22;14800;48.174;9.798;2023-11-19T08:54:12;12.10;93.20
27314;DHT22;14800;48.174;9.798;2023-11-19T08:56:38;12.10;93.20
27314;DHT22;14800;48.174;9.798;2023-11-19T08:59:05;12.20;93.20
27314;DHT22;14800;48.174;9.798;2023-11-19T09:01:30;12.20;93.20
27314;DHT22;14800;48.174;9.798;2023-11-19T09:03:56;12.30;93.20
27314;DHT22;14800;48.174;9.798;2023-11-19T09:06:22;12.30;93.20
27314;DHT22;14800;48.174;9.798;2023-11-19T09:08:48;12.40;93.20
27314;DHT22;14800;48.174;9.798;2023-11-19T09:11:14;12.40;93.10
27314;DHT22;14800;48.174;9.798;2023-11-19T09:13:39;12.50;93.10
27314;DHT22;14800;48.174;9.798;2023-11-19T09:16:05;12.50;93.10
27314;DHT22;14800;48.174;9.798;2023-11-19T09:18:31;12.50;93.10
27314;DHT22;14800;48.174;9.798;2023-11-19T09:20:57;12.60;93.10
27314;DHT22;14800;48.174;9.798;2023-11-19T09:23:23;12.60;93.10
27314;DHT22;14800;48.174;9.798;2023-11-19T09:25:50;12.60;93.10
27314;DHT22;14800;48.174;9.798;2023-11-19T09:28:16;12.70;93.10
27314;DHT22;14800;48.174;9.798;2023-11-19T09:30:41;12.70;93.00
27314;DHT22;14800;48.174;9.798;2023-11-19T09:33:07;12.80;93.00
27314;DHT22;14800;48.174;9.798;2023-11-19T09:35:33;12.80;93.00
27314;DHT22;14800;48.174;9.798;2023-11-19T09:37:58;12.80;93.00
27314;DHT22;14800;48.174;9.798;2023-11-19T09:40:24;12.80;93.00
27314;DHT22;14800;48.174;9.798;2023-11-19T09:42:50;12.90;93.00
27314;DHT22;14800;48.174;9.798;2023-11-19T09:45:17;12.90;93.00
27314;DHT22;14800;48.174;9.798;2023-11-19T09:47:46;13.00;93.10
27314;DHT22;14800;48.174;9.798;2023-11-19T09:50:19;13.10;93.00
27314;DHT22;14800;48.174;9.798;2023-11-19T09:52:46;13.10;93.00
27314;DHT22;14800;48.174;9.798;2023-11-19T09:55:12;13.10;92.90
27314;DHT22;14800;48.174;9.798;2023-11-19T09:57:41;13.20;92.90
27314;DHT22;14800;48.174;9.798;2023-11-19T10:00:08;13.20;92.80
27314;DHT22;14800;48.174;9.798;2023-11-19T10:02:36;13.30;92.80
27314;DHT22;14800;48.174;9.798;2023-11-19T10:05:07;13.30;92.80
27314;DHT22;14800;48.174;9.798;2023-11-19T10:07:34;13.30;92.70
27314;DHT22;14800;48.174;9.798;2023-11-19T10:10:00;13.40;92.70
27314;DHT22;14800;48.174;9.798;2023-11-19T10:12:27;13.40;92.70
27314;DHT22;14800;48.174;9.798;2023-11-19T10:14:56;13.40;92.70
27314;DHT22;14800;48.174;9.798;2023-11-19T10:17:33;13.40;92.70
27314;DHT22;14800;48.174;9.798;2023-11-19T10:19:58;13.40;92.60
27314;DHT22;14800;48.174;9.798;2023-11-19T10:22:24;13.50;92.60
27314;DHT22;14800;48.174;9.798;2023-11-19T10:24:52;13.50;92.60
27314;DHT22;14800;48.174;9.798;2023-11-19T10:27:17;13.50;92.60
27314;DHT22;14800;48.174;9.798;2023-11-19T10:29:47;13.60;92.60
27314;DHT22;14800;48.174;9.798;2023-11-19T10:32:13;13.60;92.60
27314;DHT22;14800;48.174;9.798;2023-11-19T10:34:40;13.60;92.60
27314;DHT22;14800;48.174;9.798;2023-11-19T10:37:07;13.60;92.50
27314;DHT22;14800;48.174;9.798;2023-11-19T10:39:54;13.70;92.60
27314;DHT22;14800;48.174;9.798;2023-11-19T10:42:20;13.80;92.70
27314;DHT22;14800;48.174;9.798;2023-11-19T10:44:46;13.80;92.60
27314;DHT22;14800;48.174;9.798;2023-11-19T10:47:13;13.80;92.60
27314;DHT22;14800;48.174;9.798;2023-11-19T10:49:39;13.90;92.60
27314;DHT22;14800;48.174;9.798;2023-11-19T10:52:08;13.90;92.60
27314;DHT22;14800;48.174;9.798;2023-11-19T10:54:34;14.00;92.60
27314;DHT22;14800;48.174;9.798;2023-11-19T10:57:02;14.10;92.60
27314;DHT22;14800;48.174;9.798;2023-11-19T10:59:30;14.10;92.60
27314;DHT22;14800;48.174;9.798;2023-11-19T11:01:56;14.20;92.50
27314;DHT22;14800;48.174;9.798;2023-11-19T11:04:25;14.30;92.40
27314;DHT22;14800;48.174;9.798;2023-11-19T11:06:54;14.40;92.20
27314;DHT22;14800;48.174;9.798;2023-11-19T11:09:21;14.40;92.10
27314;DHT22;14800;48.174;9.798;2023-11-19T11:11:50;14.40;92.10
27314;DHT22;14800;48.174;9.798;2023-11-19T11:14:18;14.50;92.00
27314;DHT22;14800;48.174;9.798;2023-11-19T11:16:46;14.50;91.90
27314;DHT22;14800;48.174;9.798;2023-11-19T11:19:15;14.50;91.90
27314;DHT22;14800;48.174;9.798;2023-11-19T11:21:45;14.60;91.90
27314;DHT22;14800;48.174;9.798;2023-11-19T11:24:28;14.60;91.90
27314;DHT22;14800;48.174;9.798;2023-11-19T11:32:59;14.70;91.40
27314;DHT22;14800;48.174;9.798;2023-11-19T11:35:49;14.70;91.20
27314;DHT22;14800;48.174;9.798;2023-11-19T11:38:21;14.80;91.20
27314;DHT22;14800;48.174;9.798;2023-11-19T11:43:53;14.70;91.00
27314;DHT22;14800;48.174;9.798;2023-11-19T11:46:56;14.70;91.20
27314;DHT22;14800;48.174;9.798;2023-11-19T11:49:26;14.70;91.20
27314;DHT22;14800;48.174;9.798;2023-11-19T11:51:59;14.80;91.20
27314;DHT22;14800;48.174;9.798;2023-11-19T11:54:28;14.80;91.20
27314;DHT22;14800;48.174;9.798;2023-11-19T11:59:52;14.80;91.10
27314;DHT22;14800;48.174;9.798;2023-11-19T12:02:22;14.90;91.10
27314;DHT22;14800;48.174;9.798;2023-11-19T12:04:50;14.90;91.10
27314;DHT22;14800;48.174;9.798;2023-11-19T12:07:18;14.90;91.00
27314;DHT22;14800;48.174;9.798;2023-11-19T12:09:52;15.00;90.90
27314;DHT22;14800;48.174;9.798;2023-11-19T12:12:22;15.00;90.90
27314;DHT22;14800;48.174;9.798;2023-11-19T12:15:05;15.00;90.80
27314;DHT22;14800;48.174;9.798;2023-11-19T12:20:04;15.10;90.80
27314;DHT22;14800;48.174;9.798;2023-11-19T12:22:31;15.10;90.80
27314;DHT22;14800;48.174;9.798;2023-11-19T12:24:57;15.10;90.80
27314;DHT22;14800;48.174;9.798;2023-11-19T12:27:23;15.20;90.80
27314;DHT22;14800;48.174;9.798;2023-11-19T12:29:49;15.20;90.80
27314;DHT22;14800;48.174;9.798;2023-11-19T12:32:15;15.30;90.70
27314;DHT22;14800;48.174;9.798;2023-11-19T12:34:40;15.30;90.60
27314;DHT22;14800;48.174;9.798;2023-11-19T12:37:06;15.30;90.60
27314;DHT22;14800;48.174;9.798;2023-11-19T12:39:34;15.40;90.50
27314;DHT22;14800;48.174;9.798;2023-11-19T12:41:59;15.40;90.50
27314;DHT22;14800;48.174;9.798;2023-11-19T12:44:25;15.40;90.40
27314;DHT22;14800;48.174;9.798;2023-11-19T12:47:03;15.50;90.40
27314;DHT22;14800;48.174;9.798;2023-11-19T12:49:29;15.50;90.00
27314;DHT22;14800;48.174;9.798;2023-11-19T12:51:55;15.50;90.20
27314;DHT22;14800;48.174;9.798;2023-11-19T12:54:32;15.60;90.20
27314;DHT22;14800;48.174;9.798;2023-11-19T12:56:58;15.60;90.00
27314;DHT22;14800;48.174;9.798;2023-11-19T12:59:24;15.60;90.10
27314;DHT22;14800;48.174;9.798;2023-11-19T13:01:59;15.70;90.00
27314;DHT22;14800;48.174;9.798;2023-11-19T13:04:31;15.70;89.30
27314;DHT22;14800;48.174;9.798;2023-11-19T13:06:58;15.80;89.30
27314;DHT22;14800;48.174;9.798;2023-11-19T13:09:27;15.80;89.50
27314;DHT22;14800;48.174;9.798;2023-11-19T13:11:54;15.80;89.30
27314;DHT22;14800;48.174;9.798;2023-11-19T13:14:20;15.80;89.30
27314;DHT22;14800;48.174;9.798;2023-11-19T13:16:46;15.80;89.00
27314;DHT22;14800;48.174;9.798;2023-11-19T13:19:12;15.80;88.90
27314;DHT22;14800;48.174;9.798;2023-11-19T13:21:38;15.90;88.70
27314;DHT22;14800;48.174;9.798;2023-11-19T13:24:06;15.90;88.60
27314;DHT22;14800;48.174;9.798;2023-11-19T13:26:31;15.80;89.20
27314;DHT22;14800;48.174;9.798;2023-11-19T13:28:57;15.90;88.30
27314;DHT22;14800;48.174;9.798;2023-11-19T13:31:23;15.90;88.50
27314;DHT22;14800;48.174;9.798;2023-11-19T13:33:48;15.90;88.40
27314;DHT22;14800;48.174;9.798;2023-11-19T13:36:14;15.90;88.20
27314;DHT22;14800;48.174;9.798;2023-11-19T13:38:40;15.90;88.00
27314;DHT22;14800;48.174;9.798;2023-11-19T13:41:07;15.90;88.00
27314;DHT22;14800;48.174;9.798;2023-11-19T13:43:35;15.90;87.80
27314;DHT22;14800;48.174;9.798;2023-11-19T13:46:01;15.90;87.70
27314;DHT22;14800;48.174;9.798;2023-11-19T13:48:26;15.80;87.70
27314;DHT22;14800;48.174;9.798;2023-11-19T13:50:57;15.80;87.80
27314;DHT22;14800;48.174;9.798;2023-11-19T13:53:22;15.80;87.80
27314;DHT22;14800;48.174;9.798;2023-11-19T13:55:49;15.80;87.60
27314;DHT22;14800;48.174;9.798;2023-11-19T13:58:15;15.70;87.40
27314;DHT22;14800;48.174;9.798;2023-11-19T14:00:41;15.70;87.30
27314;DHT22;14800;48.174;9.798;2023-11-19T14:03:07;15.70;87.40
27314;DHT22;14800;48.174;9.798;2023-11-19T14:05:34;15.60;87.30
27314;DHT22;14800;48.174;9.798;2023-11-19T14:08:00;15.60;87.20
27314;DHT22;14800;48.174;9.798;2023-11-19T14:10:26;15.50;87.20
27314;DHT22;14800;48.174;9.798;2023-11-19T14:12:52;15.50;87.40
27314;DHT22;14800;48.174;9.798;2023-11-19T14:15:18;15.40;87.40
27314;DHT22;14800;48.174;9.798;2023-11-19T14:17:43;15.40;87.50
27314;DHT22;14800;48.174;9.798;2023-11-19T14:20:09;15.30;87.60
27314;DHT22;14800;48.174;9.798;2023-11-19T14:22:47;15.30;87.70
27314;DHT22;14800;48.174;9.798;2023-11-19T14:25:14;15.30;87.60
27314;DHT22;14800;48.174;9.798;2023-11-19T14:27:41;15.20;87.90
27314;DHT22;14800;48.174;9.798;2023-11-19T14:30:09;15.20;88.00
27314;DHT22;14800;48.174;9.798;2023-11-19T14:32:37;15.20;88.00
27314;DHT22;14800;48.174;9.798;2023-11-19T14:35:06;15.20;88.10
27314;DHT22;14800;48.174;9.798;2023-11-19T14:37:32;15.20;88.10
27314;DHT22;14800;48.174;9.798;2023-11-19T14:39:58;15.10;88.20
27314;DHT22;14800;48.174;9.798;2023-11-19T14:42:24;15.10;88.20
27314;DHT22;14800;48.174;9.798;2023-11-19T14:44:51;15.10;88.30
27314;DHT22;14800;48.174;9.798;2023-11-19T14:47:19;15.10;88.40
27314;DHT22;14800;48.174;9.798;2023-11-19T14:49:45;15.10;88.50
27314;DHT22;14800;48.174;9.798;2023-11-19T14:52:10;15.00;88.50
27314;DHT22;14800;48.174;9.798;2023-11-19T14:54:36;15.00;88.50
27314;DHT22;14800;48.174;9.798;2023-11-19T14:57:02;15.00;88.50
27314;DHT22;14800;48.174;9.798;2023-11-19T14:59:28;15.00;88.60
27314;DHT22;14800;48.174;9.798;2023-11-19T15:01:54;15.00;88.60
27314;DHT22;14800;48.174;9.798;2023-11-19T15:04:20;15.00;88.70
27314;DHT22;14800;48.174;9.798;2023-11-19T15:06:45;15.00;88.80
27314;DHT22;14800;48.174;9.798;2023-11-19T15:09:11;14.90;88.80
27314;DHT22;14800;48.174;9.798;2023-11-19T15:11:42;14.90;88.80
27314;DHT22;14800;48.174;9.798;2023-11-19T15:14:08;14.90;88.80
27314;DHT22;14800;48.174;9.798;2023-11-19T15:16:33;14.90;88.80
27314;DHT22;14800;48.174;9.798;2023-11-19T15:19:00;14.90;89.70
27314;DHT22;14800;48.174;9.798;2023-11-19T15:21:28;14.90;88.80
27314;DHT22;14800;48.174;9.798;2023-11-19T15:23:55;14.90;88.80
27314;DHT22;14800;48.174;9.798;2023-11-19T15:26:21;14.90;88.80
27314;DHT22;14800;48.174;9.798;2023-11-19T15:28:47;14.90;88.70
27314;DHT22;14800;48.174;9.798;2023-11-19T15:31:13;14.90;88.70
27314;DHT22;14800;48.174;9.798;2023-11-19T15:33:40;14.80;88.60
27314;DHT22;14800;48.174;9.798;2023-11-19T15:36:06;14.80;88.70
27314;DHT22;14800;48.174;9.798;2023-11-19T15:38:36;14.80;88.80
27314;DHT22;14800;48.174;9.798;2023-11-19T15:41:01;14.80;88.80
27314;DHT22;14800;48.174;9.798;2023-11-19T15:43:30;14.70;88.60
27314;DHT22;14800;48.174;9.798;2023-11-19T15:45:56;14.70;88.60